createdAt,value
2022-11-05T00:01:16.960Z,99480.33
2022-11-05T00:06:36.729Z,99483.17
2022-11-05T00:12:00.664Z,99474.73
2022-11-05T00:17:01.644Z,99472.02
2022-11-05T00:22:21.054Z,99466.29
2022-11-05T00:27:22.090Z,99458.71
2022-11-05T00:32:23.084Z,99441.77
2022-11-05T00:37:27.445Z,99438.85
2022-11-05T00:42:47.361Z,99439.17
2022-11-05T00:48:07.061Z,99437.61
2022-11-05T00:53:08.628Z,99427.58
2022-11-05T00:58:15.833Z,99424.08
2022-11-05T01:03:19.099Z,99420.17
2022-11-05T01:08:22.359Z,99415.95
2022-11-05T01:13:26.998Z,99410.14
2022-11-05T01:18:28.254Z,99407.30
2022-11-05T01:23:29.327Z,99406.44
2022-11-05T01:28:30.489Z,99398.70
2022-11-05T01:33:31.632Z,99398.13
2022-11-05T01:38:32.657Z,99387.63
2022-11-05T01:43:53.681Z,99391.02
2022-11-05T01:49:03.191Z,99392.73
2022-11-05T01:54:10.048Z,99383.13
2022-11-05T01:59:17.674Z,99377.81
2022-11-05T02:04:39.147Z,99374.23
2022-11-05T02:10:03.774Z,99381.15
2022-11-05T02:15:05.990Z,99389.50
2022-11-05T02:20:28.964Z,99390.81
2022-11-05T02:26:07.779Z,99382.83
2022-11-05T02:31:20.691Z,99383.00
2022-11-05T02:36:45.795Z,99386.09
2022-11-05T02:42:05.832Z,99381.23
2022-11-05T02:47:25.434Z,99380.37
2022-11-05T02:52:42.356Z,99382.83
2022-11-05T02:57:45.820Z,99382.21
2022-11-05T03:02:46.980Z,99389.04
2022-11-05T03:07:57.582Z,99400.95
2022-11-05T03:13:44.488Z,99405.91
2022-11-05T03:18:53.951Z,99402.13
2022-11-05T03:24:08.265Z,99405.56
2022-11-05T03:29:16.784Z,99404.58
2022-11-05T03:34:21.723Z,99399.24
2022-11-05T03:39:29.640Z,99396.49
2022-11-05T03:44:35.372Z,99387.04
2022-11-05T03:49:46.708Z,99381.27
2022-11-05T03:54:47.866Z,99384.06
2022-11-05T03:59:50.249Z,99393.08
2022-11-05T04:04:51.974Z,99389.95
2022-11-05T04:10:11.423Z,99391.88
2022-11-05T04:15:13.733Z,99395.99
2022-11-05T04:20:33.649Z,99386.36
2022-11-05T04:25:34.755Z,99375.35
2022-11-05T04:30:36.248Z,99385.27
2022-11-05T04:35:45.789Z,99380.73
2022-11-05T04:40:47.561Z,99389.41
2022-11-05T04:45:48.589Z,99383.90
2022-11-05T04:50:49.500Z,99390.08
2022-11-05T04:55:50.602Z,99408.83
2022-11-05T05:00:52.041Z,99407.38
2022-11-05T05:05:54.028Z,99412.02
2022-11-05T05:10:55.510Z,99413.02
2022-11-05T05:15:56.828Z,99419.35
2022-11-05T05:21:17.490Z,99433.05
2022-11-05T05:26:18.510Z,99450.26
2022-11-05T05:31:20.720Z,99460.74
2022-11-05T05:36:22.703Z,99464.77
2022-11-05T05:41:24.402Z,99461.81
2022-11-05T05:46:25.446Z,99450.90
2022-11-05T05:51:26.376Z,99457.82
2022-11-05T05:56:27.417Z,99457.40
2022-11-05T06:01:28.478Z,99462.84
2022-11-05T06:06:29.867Z,99480.45
2022-11-05T06:11:30.926Z,99489.64
2022-11-05T06:16:35.191Z,99495.69
2022-11-05T06:21:36.421Z,99498.52
2022-11-05T06:26:42.041Z,99493.86
2022-11-05T06:31:43.014Z,99496.09
2022-11-05T06:36:44.067Z,99495.55
2022-11-05T06:42:12.067Z,99506.05
2022-11-05T06:47:06.268Z,99517.42
2022-11-05T06:52:07.251Z,99523.02
2022-11-05T06:57:12.070Z,99523.83
2022-11-05T07:02:13.212Z,99532.42
2022-11-05T07:07:14.692Z,99538.60
2022-11-05T07:12:15.615Z,99541.30
2022-11-05T07:17:17.868Z,99548.45
2022-11-05T07:22:18.880Z,99554.53
2022-11-05T07:27:19.975Z,99562.16
2022-11-05T07:32:20.919Z,99565.84
2022-11-05T07:37:21.979Z,99564.38
2022-11-05T07:42:22.980Z,99570.52
2022-11-05T07:47:24.017Z,99578.91
2022-11-05T07:52:25.010Z,99583.00
2022-11-05T07:57:26.066Z,99589.17
2022-11-05T08:02:27.290Z,99601.73
2022-11-05T08:07:28.518Z,99603.34
2022-11-05T08:12:30.254Z,99611.13
2022-11-05T08:17:31.656Z,99619.61
2022-11-05T08:22:32.622Z,99620.11
2022-11-05T08:27:33.650Z,99624.05
2022-11-05T08:32:35.044Z,99629.16
2022-11-05T08:37:36.282Z,99638.36
2022-11-05T08:42:37.259Z,99646.72
2022-11-05T08:47:38.318Z,99652.03
2022-11-05T08:52:39.998Z,99656.17
2022-11-05T08:57:41.026Z,99662.14
2022-11-05T09:02:42.028Z,99663.14
2022-11-05T09:07:43.201Z,99667.73
2022-11-05T09:12:44.287Z,99672.19
2022-11-05T09:17:45.250Z,99679.35
2022-11-05T09:22:46.751Z,99681.89
2022-11-05T09:27:47.768Z,99682.58
2022-11-05T09:32:48.791Z,99689.82
2022-11-05T09:37:49.854Z,99700.28
2022-11-05T09:42:53.219Z,99707.59
2022-11-05T09:48:03.265Z,99706.79
2022-11-05T09:53:04.661Z,99711.25
2022-11-05T09:58:18.359Z,99717.63
2022-11-05T10:03:22.272Z,99721.14
2022-11-05T10:08:31.844Z,99721.38
2022-11-05T10:13:41.573Z,99733.79
2022-11-05T10:18:47.592Z,99737.82
2022-11-05T10:23:48.670Z,99736.53
2022-11-05T10:28:51.976Z,99745.58
2022-11-05T10:33:58.729Z,99752.92
2022-11-05T10:39:08.792Z,99765.66
2022-11-05T10:44:25.710Z,99771.19
2022-11-05T10:49:44.562Z,99777.71
2022-11-05T10:54:46.836Z,99785.41
2022-11-05T10:59:48.080Z,99797.77
2022-11-05T11:04:52.972Z,99800.33
2022-11-05T11:09:54.474Z,99812.37
2022-11-05T11:15:03.639Z,99819.86
2022-11-05T11:20:20.244Z,99819.30
2022-11-05T11:25:24.785Z,99823.29
2022-11-05T11:30:26.687Z,99828.75
2022-11-05T11:35:28.612Z,99837.97
2022-11-05T11:40:33.662Z,99850.27
2022-11-05T11:45:45.986Z,99848.53
2022-11-05T11:50:48.261Z,99845.15
2022-11-05T11:56:11.468Z,99842.57
2022-11-05T12:01:54.576Z,99841.72
2022-11-05T12:07:17.628Z,99853.17
2022-11-05T12:12:28.037Z,99858.09
2022-11-05T12:17:45.300Z,99853.50
2022-11-05T12:23:08.811Z,99849.96
2022-11-05T12:28:13.306Z,99856.75
2022-11-05T12:33:41.655Z,99853.27
2022-11-05T12:38:52.555Z,99861.77
2022-11-05T12:44:27.098Z,99868.21
2022-11-05T12:49:46.975Z,99875.23
2022-11-05T12:55:01.209Z,99882.31
2022-11-05T13:00:05.949Z,99887.67
2022-11-05T13:05:18.906Z,99894.45
2022-11-05T13:10:31.070Z,99905.55
2022-11-05T13:15:38.295Z,99908.52
2022-11-05T13:20:45.097Z,99908.02
2022-11-05T13:25:52.498Z,99916.59
2022-11-05T13:31:00.626Z,99926.02
2022-11-05T13:36:34.031Z,99931.34
2022-11-05T13:42:01.070Z,99940.27
2022-11-05T13:47:40.187Z,99950.17
2022-11-05T13:52:58.274Z,99963.45
2022-11-05T13:58:37.231Z,99971.85
2022-11-05T14:03:45.321Z,99969.21
2022-11-05T14:08:46.430Z,99974.95
2022-11-05T14:13:53.942Z,99988.23
2022-11-05T14:19:17.782Z,100002.52
2022-11-05T14:24:24.596Z,100012.24
2022-11-05T14:29:44.018Z,100017.87
2022-11-05T14:34:45.172Z,100021.52
2022-11-05T14:39:47.107Z,100031.54
2022-11-05T14:45:13.055Z,100032.17
2022-11-05T14:50:38.189Z,100036.77
2022-11-05T14:55:42.666Z,100037.70
2022-11-05T15:00:46.033Z,100036.95
2022-11-05T15:05:47.013Z,100038.69
2022-11-05T15:10:48.414Z,100038.15
2022-11-05T15:15:51.311Z,100041.38
2022-11-05T15:20:56.841Z,100046.61
2022-11-05T15:26:11.477Z,100049.41
2022-11-05T15:31:12.433Z,100051.02
2022-11-05T15:36:32.462Z,100055.61
2022-11-05T15:41:33.863Z,100058.63
2022-11-05T15:46:34.877Z,100055.89
2022-11-05T15:51:36.352Z,100059.81
2022-11-05T15:56:49.005Z,100062.54
2022-11-05T16:02:00.392Z,100071.94
2022-11-05T16:07:09.953Z,100073.23
2022-11-05T16:12:18.066Z,100085.55
2022-11-05T16:17:23.314Z,100095.63
2022-11-05T16:22:25.062Z,100108.46
2022-11-05T16:27:26.414Z,100121.55
2022-11-05T16:32:31.095Z,100135.59
2022-11-05T16:37:40.885Z,100141.94
2022-11-05T16:42:42.586Z,100143.76
2022-11-05T16:47:45.366Z,100141.86
2022-11-05T16:52:46.960Z,100147.90
2022-11-05T16:57:54.692Z,100149.95
2022-11-05T17:02:56.110Z,100160.77
2022-11-05T17:07:57.776Z,100175.17
2022-11-05T17:12:58.870Z,100180.91
2022-11-05T17:18:04.915Z,100182.76
2022-11-05T17:23:07.339Z,100183.48
2022-11-05T17:28:10.319Z,100190.89
2022-11-05T17:33:12.078Z,100191.71
2022-11-05T17:38:15.681Z,100199.05
2022-11-05T17:43:17.632Z,100209.06
2022-11-05T17:48:20.364Z,100220.34
2022-11-05T17:53:21.600Z,100226.56
2022-11-05T17:58:22.659Z,100238.89
2022-11-05T18:03:24.023Z,100243.75
2022-11-05T18:08:26.577Z,100243.35
2022-11-05T18:13:27.530Z,100247.69
2022-11-05T18:18:28.812Z,100248.79
2022-11-05T18:23:29.843Z,100250.70
2022-11-05T18:28:34.292Z,100260.50
2022-11-05T18:33:35.293Z,100268.69
2022-11-05T18:38:36.602Z,100272.19
2022-11-05T18:43:37.623Z,100271.31
2022-11-05T18:48:38.636Z,100276.48
2022-11-05T18:53:39.920Z,100280.25
2022-11-05T18:58:41.890Z,100278.98
2022-11-05T19:03:43.159Z,100284.83
2022-11-05T19:08:44.668Z,100287.45
2022-11-05T19:13:46.576Z,100295.04
2022-11-05T19:18:48.835Z,100296.52
2022-11-05T19:23:51.204Z,100298.02
2022-11-05T19:28:52.203Z,100297.48
2022-11-05T19:33:53.811Z,100299.42
2022-11-05T19:38:57.136Z,100303.64
2022-11-05T19:44:00.974Z,100308.77
2022-11-05T19:49:02.477Z,100315.11
2022-11-05T19:54:04.873Z,100311.05
2022-11-05T19:59:06.312Z,100314.46
2022-11-05T20:04:11.064Z,100316.17
2022-11-05T20:09:22.157Z,100322.27
2022-11-05T20:14:25.300Z,100324.05
2022-11-05T20:19:28.373Z,100326.17
2022-11-05T20:24:29.534Z,100329.73
2022-11-05T20:29:35.245Z,100331.22
2022-11-05T20:34:37.905Z,100335.87
2022-11-05T20:39:38.919Z,100334.04
2022-11-05T20:44:40.209Z,100338.52
2022-11-05T20:49:41.111Z,100338.00
2022-11-05T20:54:42.453Z,100335.68
2022-11-05T20:59:43.489Z,100341.12
2022-11-05T21:04:45.101Z,100343.40
2022-11-05T21:09:46.868Z,100350.23
2022-11-05T21:14:48.913Z,100353.96
2022-11-05T21:19:52.567Z,100354.16
2022-11-05T21:24:53.663Z,100362.02
2022-11-05T21:29:54.949Z,100361.26
2022-11-05T21:34:55.914Z,100363.89
2022-11-05T21:39:56.915Z,100367.06
2022-11-05T21:45:00.606Z,100366.42
2022-11-05T21:50:02.247Z,100368.52
2022-11-05T21:55:22.385Z,100377.27
2022-11-05T22:00:23.593Z,100376.30
2022-11-05T22:05:26.290Z,100378.56
2022-11-05T22:10:27.760Z,100380.20
2022-11-05T22:15:28.810Z,100380.90
2022-11-05T22:20:30.027Z,100381.38
2022-11-05T22:25:30.995Z,100386.23
2022-11-05T22:30:33.989Z,100388.16
2022-11-05T22:35:38.589Z,100396.30
2022-11-05T22:40:39.624Z,100399.27
2022-11-05T22:45:40.649Z,100403.83
2022-11-05T22:50:42.123Z,100406.40
2022-11-05T22:55:43.131Z,100410.64
2022-11-05T23:00:44.034Z,100411.18
2022-11-05T23:05:45.151Z,100407.07
2022-11-05T23:11:04.908Z,100410.45
2022-11-05T23:16:26.912Z,100418.94
2022-11-05T23:21:46.907Z,100420.59
2022-11-05T23:26:50.747Z,100419.95
2022-11-05T23:32:11.135Z,100424.39
2022-11-05T23:37:30.681Z,100430.63
2022-11-05T23:42:50.374Z,100431.46
2022-11-05T23:48:10.827Z,100436.98
2022-11-05T23:53:12.312Z,100433.65
2022-11-05T23:58:14.580Z,100434.17
